Time;durP1;ratioP1;P1;durP2;ratioP2;P2;SDS_P1;SDS_P2;PMS_P1;PMS_P2;Temp;Humidity;BMP_temperature;BMP_pressure;BME280_temperature;BME280_humidity;BME280_pressure;Samples;Min_cycle;Max_cycle;Signal;HPM_P1;HPM_P2
2023/07/28 00:00:23;;;;;;;3.72;3.40;;;;;;;18.14;50.70;94954.91;5094501;28;20241;-66
2023/07/28 00:02:52;;;;;;;3.20;2.90;;;;;;;18.00;51.29;94947.38;5094393;28;20215;-66
2023/07/28 00:05:21;;;;;;;4.10;3.80;;;;;;;17.89;50.94;94950.19;5094572;28;20180;-66
2023/07/28 00:07:52;;;;;;;3.90;3.50;;;;;;;17.75;51.25;94951.03;5094449;28;20203;-66
2023/07/28 00:10:20;;;;;;;5.25;4.30;;;;;;;17.53;52.21;94953.03;5094774;28;20220;-66
2023/07/28 00:12:47;;;;;;;11.70;8.55;;;;;;;17.39;52.49;94944.69;5094314;28;20204;-66
2023/07/28 00:15:14;;;;;;;18.77;14.00;;;;;;;17.30;52.92;94949.88;5094520;28;20196;-66
2023/07/28 00:17:44;;;;;;;21.42;16.45;;;;;;;17.29;52.99;94943.50;5094119;28;20557;-66
2023/07/28 00:20:12;;;;;;;24.60;16.45;;;;;;;17.32;52.60;94950.28;5094506;28;20246;-66
2023/07/28 00:22:42;;;;;;;22.73;15.43;;;;;;;17.35;52.39;94943.88;5094423;28;20204;-66
2023/07/28 00:25:11;;;;;;;23.85;15.48;;;;;;;17.22;52.80;94945.50;5094583;28;20223;-66
2023/07/28 00:27:39;;;;;;;30.80;21.15;;;;;;;17.28;53.06;94941.09;5094296;28;20222;-65
2023/07/28 00:30:08;;;;;;;45.45;28.08;;;;;;;17.29;52.77;94928.78;5094316;28;20200;-65
2023/07/28 00:32:36;;;;;;;60.30;39.85;;;;;;;17.20;52.89;94931.97;5094501;28;20200;-65
2023/07/28 00:35:04;;;;;;;75.10;44.97;;;;;;;17.13;53.30;94934.75;5094504;28;20519;-65
2023/07/28 00:37:35;;;;;;;58.35;36.85;;;;;;;17.04;53.57;94942.72;5096731;28;20210;-65
2023/07/28 00:40:04;;;;;;;41.40;25.17;;;;;;;16.97;53.39;94940.72;5098609;28;20200;-65
2023/07/28 00:42:37;;;;;;;33.10;23.27;;;;;;;16.89;53.77;94941.91;5098455;28;20204;-65
2023/07/28 00:45:09;;;;;;;45.85;26.80;;;;;;;16.92;53.85;94940.31;5098157;28;20199;-65
2023/07/28 00:47:36;;;;;;;33.30;21.98;;;;;;;16.97;53.57;94946.28;5097932;28;20216;-65
2023/07/28 00:50:05;;;;;;;16.73;10.98;;;;;;;17.05;53.47;94938.72;5098201;28;20207;-65
2023/07/28 00:52:35;;;;;;;15.13;10.52;;;;;;;16.94;53.74;94949.88;5098728;28;20177;-65
2023/07/28 00:55:04;;;;;;;26.50;16.10;;;;;;;16.84;54.06;94948.66;5098409;28;20382;-66
2023/07/28 00:57:31;;;;;;;21.35;13.80;;;;;;;16.77;53.95;94954.22;5097808;28;20208;-66
2023/07/28 01:00:01;;;;;;;9.23;7.85;;;;;;;16.71;54.23;94950.22;5098774;28;20188;-66
2023/07/28 01:02:29;;;;;;;6.05;5.20;;;;;;;16.72;54.44;94939.88;5098136;28;20200;-65
2023/07/28 01:04:57;;;;;;;5.30;4.80;;;;;;;16.77;54.03;94947.84;5098002;28;20191;-65
2023/07/28 01:07:30;;;;;;;14.20;10.23;;;;;;;16.76;53.82;94943.50;5097924;28;20212;-66
2023/07/28 01:10:06;;;;;;;15.85;11.75;;;;;;;16.75;54.41;94944.69;5097862;28;20193;-66
2023/07/28 01:12:33;;;;;;;19.58;12.88;;;;;;;16.80;54.27;94947.88;5098275;28;20192;-66
2023/07/28 01:15:02;;;;;;;13.23;10.02;;;;;;;16.84;53.70;94954.22;5098086;28;20540;-66
2023/07/28 01:17:30;;;;;;;13.30;9.57;;;;;;;16.85;54.27;94952.25;5098630;28;20184;-66
2023/07/28 01:19:59;;;;;;;7.18;5.93;;;;;;;16.86;53.60;94953.06;5096934;28;20236;-66
2023/07/28 01:22:48;;;;;;;6.32;4.95;;;;;;;16.69;54.18;94960.16;5097751;28;20637;-66
2023/07/28 01:25:20;;;;;;;4.20;3.90;;;;;;;16.48;54.80;94950.53;5097456;28;20267;-65
2023/07/28 01:27:48;;;;;;;7.43;6.30;;;;;;;16.34;55.06;94956.91;5097523;28;20227;-66
2023/07/28 01:30:16;;;;;;;13.95;10.13;;;;;;;16.39;55.10;94950.13;5097293;28;20593;-66
2023/07/28 01:32:44;;;;;;;11.70;10.40;;;;;;;16.42;55.00;94956.91;5097309;28;20207;-66
2023/07/28 01:35:11;;;;;;;12.88;10.70;;;;;;;16.30;55.50;94950.53;5097178;28;20204;-66
2023/07/28 01:37:42;;;;;;;12.88;9.52;;;;;;;16.27;56.26;94945.75;5097050;28;20302;-66
2023/07/28 01:40:13;;;;;;;11.68;8.38;;;;;;;16.23;55.75;94952.47;5097552;28;20196;-66
2023/07/28 01:42:41;;;;;;;13.48;10.25;;;;;;;16.12;56.19;94950.47;5097314;28;20203;-66
2023/07/28 01:45:14;;;;;;;29.83;20.90;;;;;;;16.08;56.39;94952.41;5097222;28;20203;-66
2023/07/28 01:47:41;;;;;;;21.02;13.98;;;;;;;16.02;56.23;94967.09;5096602;28;20220;-66
2023/07/28 01:50:09;;;;;;;17.52;10.98;;;;;;;15.99;56.16;94949.19;5097239;28;20204;-66
2023/07/28 01:52:37;;;;;;;14.52;10.25;;;;;;;16.02;56.03;94953.19;5097878;28;20181;-66
2023/07/28 01:55:08;;;;;;;19.65;12.70;;;;;;;16.07;55.31;94955.59;5096967;28;20192;-67
2023/07/28 01:57:36;;;;;;;14.75;10.50;;;;;;;16.12;55.31;94952.41;5096998;28;20200;-67
2023/07/28 02:00:07;;;;;;;13.38;9.35;;;;;;;16.20;55.71;94954.06;5097467;28;20196;-67
2023/07/28 02:02:39;;;;;;;22.55;15.40;;;;;;;16.06;55.90;94957.56;5096883;28;20192;-67
2023/07/28 02:05:08;;;;;;;22.05;14.77;;;;;;;15.93;56.40;94966.66;5096930;28;20196;-66
2023/07/28 02:07:36;;;;;;;15.07;10.90;;;;;;;15.92;55.90;94962.28;5096841;28;20223;-66
2023/07/28 02:10:05;;;;;;;15.38;11.32;;;;;;;15.98;56.15;94961.53;5097728;28;20185;-66
2023/07/28 02:12:35;;;;;;;26.13;17.38;;;;;;;16.03;56.31;94952.00;5096836;28;20223;-67
2023/07/28 02:15:04;;;;;;;30.27;20.10;;;;;;;16.10;56.14;94949.25;5096792;28;20205;-66
2023/07/28 02:17:33;;;;;;;21.48;15.20;;;;;;;16.08;55.96;94952.41;5096630;28;20258;-66
2023/07/28 02:20:12;;;;;;;18.25;13.65;;;;;;;15.98;55.99;94958.75;5097027;28;20648;-67
2023/07/28 02:22:43;;;;;;;20.15;13.80;;;;;;;15.95;56.32;94967.84;5079408;28;20204;-66
2023/07/28 02:25:11;;;;;;;18.73;14.30;;;;;;;15.96;56.37;94966.66;5096688;28;20188;-66
2023/07/28 02:27:42;;;;;;;12.95;10.27;;;;;;;16.03;56.17;94968.69;5096325;28;20257;-66
2023/07/28 02:30:10;;;;;;;18.33;12.68;;;;;;;16.09;55.70;94964.34;5097052;28;20584;-66
2023/07/28 02:32:38;;;;;;;18.75;11.48;;;;;;;16.05;55.33;94964.34;5097380;28;20275;-66
2023/07/28 02:35:10;;;;;;;16.00;12.00;;;;;;;15.99;55.78;94965.88;5097023;28;20185;-66
2023/07/28 02:37:38;;;;;;;11.75;9.55;;;;;;;15.92;56.10;94967.84;5096228;28;20241;-66
2023/07/28 02:40:09;;;;;;;7.75;6.97;;;;;;;15.89;56.30;94966.63;5096483;28;20204;-66
2023/07/28 02:42:37;;;;;;;6.97;6.28;;;;;;;15.85;56.24;94963.81;5096363;28;20206;-65
2023/07/28 02:45:06;;;;;;;5.63;5.00;;;;;;;15.81;56.52;94967.78;5096115;28;20291;-66
2023/07/28 02:47:34;;;;;;;5.63;5.13;;;;;;;15.69;56.58;94962.56;5095960;28;20212;-65
2023/07/28 02:50:04;;;;;;;7.45;4.95;;;;;;;15.67;56.87;94954.59;5096109;28;20196;-65
2023/07/28 02:52:33;;;;;;;7.68;5.40;;;;;;;15.69;56.87;94959.78;5096517;28;20593;-65
2023/07/28 02:55:03;;;;;;;5.53;4.95;;;;;;;15.67;56.90;94960.16;5095917;28;20214;-66
2023/07/28 02:57:31;;;;;;;5.07;4.50;;;;;;;15.76;56.65;94957.00;5095851;28;20195;-65
2023/07/28 02:59:59;;;;;;;7.10;4.55;;;;;;;15.80;56.37;94961.44;5095361;28;20196;-66
2023/07/28 03:02:27;;;;;;;4.68;4.28;;;;;;;15.85;55.63;94963.81;5095830;28;20253;-66
2023/07/28 03:04:57;;;;;;;4.40;4.00;;;;;;;15.84;56.04;94964.22;5095770;28;20211;-66
2023/07/28 03:07:24;;;;;;;5.30;4.43;;;;;;;15.85;56.44;94963.03;5095264;28;20212;-66
2023/07/28 03:09:54;;;;;;;5.90;5.00;;;;;;;15.83;55.94;94962.63;5096258;28;20680;-66
2023/07/28 03:12:21;;;;;;;6.13;5.00;;;;;;;15.85;55.78;94976.94;5095745;28;20236;-66
2023/07/28 03:14:51;;;;;;;8.77;6.70;;;;;;;15.81;56.21;94970.56;5095493;28;20520;-66
2023/07/28 03:17:18;;;;;;;8.13;6.53;;;;;;;15.74;57.13;94973.31;5096131;28;20604;-66
2023/07/28 03:19:48;;;;;;;8.57;5.15;;;;;;;15.75;56.82;94969.34;5096140;28;20200;-66
2023/07/28 03:22:16;;;;;;;5.20;4.70;;;;;;;15.75;56.66;94972.91;5095724;28;20197;-66
2023/07/28 03:24:46;;;;;;;5.93;4.70;;;;;;;15.70;56.65;94978.84;5095992;28;20643;-65
2023/07/28 03:27:18;;;;;;;5.65;4.63;;;;;;;15.65;56.79;94979.19;5096173;28;20208;-66
2023/07/28 03:29:46;;;;;;;4.80;4.38;;;;;;;15.62;56.67;94979.97;5095211;28;20192;-66
2023/07/28 03:32:14;;;;;;;4.43;4.03;;;;;;;15.59;56.72;94983.50;5096091;28;20584;-66
2023/07/28 03:34:41;;;;;;;4.35;3.95;;;;;;;15.61;56.07;94986.69;5095275;28;20558;-66
2023/07/28 03:37:10;;;;;;;4.82;4.40;;;;;;;15.70;56.52;94986.41;5095066;28;20208;-65
2023/07/28 03:39:38;;;;;;;4.85;4.35;;;;;;;15.69;56.71;94982.81;5095047;28;20246;-65
2023/07/28 03:42:07;;;;;;;4.93;4.53;;;;;;;15.71;56.94;94991.56;5095860;28;20196;-64
2023/07/28 03:44:41;;;;;;;5.32;4.82;;;;;;;15.70;56.71;94994.72;5094613;28;20203;-65
2023/07/28 03:47:08;;;;;;;7.47;6.50;;;;;;;15.66;57.19;94991.13;5095121;28;20306;-65
2023/07/28 03:49:39;;;;;;;8.15;6.20;;;;;;;15.64;57.35;94997.03;5094589;28;20202;-65
2023/07/28 03:52:07;;;;;;;8.73;6.43;;;;;;;15.61;57.09;94992.25;5094930;28;20253;-65
2023/07/28 03:54:35;;;;;;;6.03;5.45;;;;;;;15.55;56.66;94985.47;5094503;28;20197;-65
2023/07/28 03:57:02;;;;;;;7.95;5.32;;;;;;;15.55;57.32;94988.25;5094480;28;20207;-65
2023/07/28 03:59:30;;;;;;;7.40;4.88;;;;;;;15.51;57.63;94982.66;5094755;28;20211;-66
2023/07/28 04:02:04;;;;;;;6.90;4.70;;;;;;;15.53;57.89;94988.63;5094783;28;20208;-66
2023/07/28 04:04:31;;;;;;;6.47;4.63;;;;;;;15.51;58.22;94988.22;5094723;28;20213;-65
2023/07/28 04:07:01;;;;;;;5.70;4.57;;;;;;;15.49;58.19;94985.03;5094763;28;20539;-65
2023/07/28 04:09:28;;;;;;;5.10;4.60;;;;;;;15.39;58.30;94983.75;5078251;28;20245;-64
2023/07/28 04:11:59;;;;;;;5.25;4.28;;;;;;;15.39;58.50;94985.75;5094159;28;20200;-65
2023/07/28 04:15:02;;;;;;;6.60;4.53;;;;;;;15.41;58.08;94989.75;5094699;28;20291;-65
2023/07/28 04:18:06;;;;;;;6.10;4.20;;;;;;;15.40;58.19;94988.16;5094384;28;20196;-65
2023/07/28 04:21:12;;;;;;;5.63;3.75;;;;;;;15.47;57.28;94995.75;5094961;28;20238;-64
2023/07/28 04:23:44;;;;;;;8.77;7.78;;;;;;;15.47;57.17;95006.03;5095089;28;20184;-64
2023/07/28 04:26:12;;;;;;;25.17;18.23;;;;;;;15.47;57.72;94995.75;5094718;28;20188;-64
2023/07/28 04:28:38;;;;;;;11.55;10.40;;;;;;;15.54;57.67;95001.34;5095006;28;20212;-67
2023/07/28 04:31:09;;;;;;;37.03;27.88;;;;;;;15.59;57.28;95000.19;5095310;28;20184;-65
2023/07/28 04:33:37;;;;;;;26.42;19.25;;;;;;;15.61;57.78;94998.63;5094322;28;20192;-64
2023/07/28 04:36:04;;;;;;;25.15;16.35;;;;;;;15.61;57.73;94995.03;5095119;28;20200;-64
2023/07/28 04:38:35;;;;;;;15.25;11.63;;;;;;;15.63;57.57;94993.47;5094944;28;20677;-64
2023/07/28 04:41:07;;;;;;;19.02;15.50;;;;;;;15.62;57.40;94997.44;5094263;28;20235;-64
2023/07/28 04:43:35;;;;;;;14.95;12.25;;;;;;;15.63;56.96;95001.00;5094182;28;20208;-64
2023/07/28 04:46:05;;;;;;;10.05;7.75;;;;;;;15.66;56.96;95005.03;5094821;28;20218;-64
2023/07/28 04:48:36;;;;;;;7.18;6.03;;;;;;;15.69;56.72;95002.28;5095286;28;20200;-64
2023/07/28 04:51:04;;;;;;;7.20;6.50;;;;;;;15.72;57.25;94992.34;5094384;28;20204;-64
2023/07/28 04:53:32;;;;;;;8.35;6.57;;;;;;;15.78;56.95;95005.50;5093898;28;20199;-64
2023/07/28 04:56:00;;;;;;;6.00;5.40;;;;;;;15.82;56.39;94999.97;5094775;28;20196;-64
2023/07/28 04:58:30;;;;;;;11.35;9.70;;;;;;;15.83;56.37;94994.03;5094067;28;20196;-64
2023/07/28 05:00:59;;;;;;;10.27;8.15;;;;;;;15.76;56.33;94993.97;5093911;28;20193;-64
2023/07/28 05:03:25;;;;;;;12.13;8.50;;;;;;;15.75;56.26;94994.34;5094036;28;20643;-64
2023/07/28 05:05:56;;;;;;;11.70;10.50;;;;;;;15.78;56.98;94997.16;5094709;28;20189;-64
2023/07/28 05:08:24;;;;;;;15.65;10.55;;;;;;;15.85;56.74;94994.41;5094771;28;20223;-67
2023/07/28 05:10:52;;;;;;;9.65;8.13;;;;;;;15.86;56.17;94998.78;5093734;28;20624;-67
2023/07/28 05:13:18;;;;;;;7.25;6.38;;;;;;;15.94;56.71;94991.31;5093708;28;20242;-66
2023/07/28 05:15:47;;;;;;;10.07;9.07;;;;;;;16.02;56.46;94994.91;5093630;28;20207;-67
2023/07/28 05:18:14;;;;;;;9.85;6.60;;;;;;;16.08;56.41;95002.47;5093770;28;20263;-67
2023/07/28 05:20:45;;;;;;;7.53;6.78;;;;;;;16.12;55.99;94992.19;5093704;28;20239;-67
2023/07/28 05:23:11;;;;;;;10.27;8.32;;;;;;;16.16;56.77;94997.78;5095120;28;20635;-67
2023/07/28 05:25:39;;;;;;;8.50;6.57;;;;;;;16.23;56.31;94997.81;5097837;28;20549;-67
2023/07/28 05:28:07;;;;;;;5.97;4.90;;;;;;;16.27;56.18;95000.59;5097636;28;20212;-67
2023/07/28 05:30:35;;;;;;;7.45;4.88;;;;;;;16.27;55.02;95001.41;5098709;28;20185;-66
2023/07/28 05:33:08;;;;;;;5.97;4.70;;;;;;;16.27;55.47;94997.81;5098705;28;20200;-66
2023/07/28 05:35:36;;;;;;;6.13;4.82;;;;;;;16.27;55.72;94995.84;5097584;28;20193;-66
2023/07/28 05:38:07;;;;;;;5.35;4.68;;;;;;;16.32;55.91;94994.66;5096907;28;20211;-67
2023/07/28 05:40:33;;;;;;;5.63;4.72;;;;;;;16.40;56.03;94987.13;5097494;28;20285;-67
2023/07/28 05:43:01;;;;;;;5.35;4.68;;;;;;;16.47;55.41;94990.72;5098265;28;20181;-66
2023/07/28 05:45:29;;;;;;;5.57;4.90;;;;;;;16.54;55.10;94981.59;5097242;28;20196;-66
2023/07/28 05:47:57;;;;;;;4.88;4.45;;;;;;;16.60;54.95;94985.59;5097739;28;20293;-67
2023/07/28 05:50:28;;;;;;;5.78;4.57;;;;;;;16.64;54.41;94980.84;5098253;28;20218;-67
2023/07/28 05:52:56;;;;;;;5.20;4.45;;;;;;;16.68;54.32;94978.06;5097846;28;20185;-72
2023/07/28 05:55:26;;;;;;;4.80;4.40;;;;;;;16.71;54.11;94975.28;5097043;28;20200;-69
2023/07/28 05:57:56;;;;;;;4.43;4.03;;;;;;;16.79;53.57;94973.34;5096725;28;20196;-68
2023/07/28 06:00:24;;;;;;;5.18;4.15;;;;;;;16.80;53.73;94972.13;5097926;28;20188;-68
2023/07/28 06:02:53;;;;;;;4.10;3.72;;;;;;;16.83;54.07;94972.13;5097698;28;20605;-68
2023/07/28 06:05:20;;;;;;;5.57;3.90;;;;;;;16.90;53.93;94973.34;5096998;28;20192;-68
2023/07/28 06:07:49;;;;;;;5.60;4.18;;;;;;;16.95;53.81;94976.53;5096757;28;20216;-68
2023/07/28 06:10:18;;;;;;;5.63;4.10;;;;;;;17.03;53.66;94964.22;5097498;28;20193;-67
2023/07/28 06:12:45;;;;;;;4.32;3.90;;;;;;;17.17;53.53;94962.63;5097702;28;20188;-66
2023/07/28 06:15:13;;;;;;;4.25;3.83;;;;;;;17.28;53.06;94972.59;5096763;28;20205;-67
2023/07/28 06:17:41;;;;;;;7.60;4.30;;;;;;;17.36;52.20;94961.41;5096521;28;20208;-67
2023/07/28 06:20:11;;;;;;;4.50;4.13;;;;;;;17.41;51.74;94969.38;5096239;28;20247;-67
2023/07/28 06:22:39;;;;;;;4.65;4.25;;;;;;;17.47;51.67;94965.81;5097470;28;20199;-67
2023/07/28 06:25:08;;;;;;;4.78;4.10;;;;;;;17.52;51.66;94968.19;5096665;28;20196;-68
2023/07/28 06:27:38;;;;;;;4.38;3.90;;;;;;;17.61;51.90;94966.97;5094310;28;20285;-67
2023/07/28 06:30:13;;;;;;;4.60;4.20;;;;;;;17.66;51.47;94955.41;5097289;28;20188;-67
2023/07/28 06:32:43;;;;;;;6.45;4.40;;;;;;;17.72;51.34;94965.75;5097380;28;20283;-67
2023/07/28 06:35:11;;;;;;;4.80;4.30;;;;;;;17.77;51.38;94951.44;5096883;28;20189;-66
2023/07/28 06:37:41;;;;;;;7.40;4.50;;;;;;;17.85;51.54;94951.41;5095866;28;20196;-68
2023/07/28 06:40:17;;;;;;;4.05;3.75;;;;;;;17.93;50.48;94953.78;5096525;28;20294;-67
2023/07/28 06:42:46;;;;;;;4.50;4.10;;;;;;;18.00;50.33;94958.53;5095862;28;20345;-67
2023/07/28 06:45:13;;;;;;;4.68;4.10;;;;;;;17.99;50.16;94957.75;5095993;28;20390;-67
2023/07/28 06:47:41;;;;;;;4.63;4.20;;;;;;;18.04;50.67;94957.31;5095747;28;20216;-67
2023/07/28 06:50:11;;;;;;;5.20;4.60;;;;;;;18.10;50.45;94952.13;5096280;28;20196;-69
2023/07/28 06:52:39;;;;;;;4.95;4.53;;;;;;;18.18;50.11;94961.28;5096328;28;20188;-67
2023/07/28 06:55:08;;;;;;;4.90;4.60;;;;;;;18.22;50.24;94960.03;5096059;28;20195;-67
2023/07/28 06:57:41;;;;;;;5.95;4.30;;;;;;;18.28;50.19;94960.44;5096439;28;20188;-67
2023/07/28 07:00:11;;;;;;;4.85;4.43;;;;;;;18.30;49.77;94960.84;5095772;28;20205;-68
2023/07/28 07:02:39;;;;;;;5.00;4.40;;;;;;;18.27;49.98;94965.22;5096124;28;20715;-67
2023/07/28 07:05:08;;;;;;;5.13;4.68;;;;;;;18.27;50.01;94962.44;5096645;28;20514;-67
2023/07/28 07:07:38;;;;;;;5.38;4.15;;;;;;;18.27;49.85;94956.06;5095575;28;20196;-67
2023/07/28 07:10:08;;;;;;;4.75;4.22;;;;;;;18.34;50.20;94952.41;5095291;28;20719;-67
2023/07/28 07:12:35;;;;;;;4.55;4.07;;;;;;;18.39;50.24;94954.81;5095935;28;20192;-67
2023/07/28 07:15:07;;;;;;;4.70;4.30;;;;;;;18.47;49.78;94947.97;5095230;28;20639;-67
2023/07/28 07:17:35;;;;;;;5.22;4.18;;;;;;;18.51;49.34;94951.53;5095189;28;20199;-67
2023/07/28 07:20:05;;;;;;;5.57;4.75;;;;;;;18.55;49.40;94943.94;5096184;28;20192;-67
2023/07/28 07:22:33;;;;;;;7.25;4.57;;;;;;;18.61;49.97;94949.91;5095195;28;20192;-67
2023/07/28 07:25:02;;;;;;;4.85;4.45;;;;;;;18.66;49.35;94958.63;5095767;28;20200;-67
2023/07/28 07:27:29;;;;;;;6.40;4.60;;;;;;;18.72;49.16;94954.25;5095310;28;20241;-67
2023/07/28 07:30:00;;;;;;;5.60;4.57;;;;;;;18.78;48.71;94960.22;5095188;28;20616;-67
2023/07/28 07:32:32;;;;;;;5.22;4.30;;;;;;;18.86;49.32;94958.16;5095145;28;20275;-67
2023/07/28 07:35:02;;;;;;;4.82;4.00;;;;;;;18.93;48.75;94958.91;5095296;28;20197;-67
2023/07/28 07:37:31;;;;;;;6.25;4.40;;;;;;;19.02;48.60;94964.03;5096068;28;20192;-67
2023/07/28 07:40:00;;;;;;;5.40;4.88;;;;;;;19.09;48.76;94950.00;5095151;28;20200;-67
2023/07/28 07:42:32;;;;;;;5.13;4.50;;;;;;;19.19;48.94;94960.31;5094767;28;20651;-67
2023/07/28 07:45:00;;;;;;;5.00;4.50;;;;;;;19.26;48.02;94959.47;5095238;28;20193;-67
2023/07/28 07:47:29;;;;;;;4.15;3.85;;;;;;;19.31;47.97;94956.22;5094223;28;20643;-67
2023/07/28 07:50:03;;;;;;;4.60;4.20;;;;;;;19.34;48.01;94957.41;5094906;28;20314;-67
2023/07/28 07:52:33;;;;;;;5.03;4.50;;;;;;;19.41;47.94;94960.13;5095002;28;20211;-67
2023/07/28 07:55:04;;;;;;;4.90;4.50;;;;;;;19.50;47.96;94966.06;5095879;28;20196;-67
2023/07/28 07:57:32;;;;;;;5.60;4.40;;;;;;;19.58;47.94;94962.00;5094713;28;20233;-67
2023/07/28 07:59:59;;;;;;;4.40;4.10;;;;;;;19.66;47.66;94969.13;5095181;28;20199;-67
2023/07/28 08:02:29;;;;;;;5.68;4.85;;;;;;;19.70;46.64;94957.91;5094655;28;20226;-68
2023/07/28 08:04:58;;;;;;;4.53;4.13;;;;;;;19.72;47.12;94961.09;5094537;28;20203;-68
2023/07/28 08:07:25;;;;;;;5.53;4.50;;;;;;;19.80;47.19;94959.03;5094277;28;20193;-68
2023/07/28 08:09:53;;;;;;;6.88;4.88;;;;;;;19.89;47.52;94962.09;5094243;28;20651;-67
2023/07/28 08:12:20;;;;;;;5.75;4.43;;;;;;;20.00;47.67;94956.41;5095359;28;20274;-67
2023/07/28 08:14:51;;;;;;;5.07;4.22;;;;;;;20.11;47.60;94955.06;5095213;28;20214;-68
2023/07/28 08:17:17;;;;;;;4.68;4.28;;;;;;;20.20;47.10;94954.56;5094262;28;20647;-68
2023/07/28 08:19:45;;;;;;;4.72;4.25;;;;;;;20.32;46.23;94956.03;5094539;28;20204;-68
2023/07/28 08:22:19;;;;;;;5.50;4.50;;;;;;;20.41;46.08;94957.13;5093069;28;20240;-68
2023/07/28 08:24:47;;;;;;;5.47;4.50;;;;;;;20.48;45.31;94947.84;5095498;28;20200;-67
2023/07/28 08:27:15;;;;;;;4.75;4.25;;;;;;;20.51;45.71;94947.00;5094090;28;20208;-68
2023/07/28 08:29:42;;;;;;;5.20;4.32;;;;;;;20.59;45.46;94947.72;5094316;28;20216;-67
2023/07/28 08:32:11;;;;;;;5.47;4.05;;;;;;;20.69;44.87;94952.38;5094331;28;20192;-67
2023/07/28 08:34:39;;;;;;;6.05;4.28;;;;;;;20.71;45.83;94949.16;5094218;28;20227;-68
2023/07/28 08:37:08;;;;;;;4.30;3.88;;;;;;;20.75;44.60;94952.69;5094930;28;20600;-67
2023/07/28 08:39:39;;;;;;;4.78;4.28;;;;;;;20.77;44.65;94956.69;5094355;28;20226;-68
2023/07/28 08:42:10;;;;;;;4.90;4.50;;;;;;;20.81;45.68;94943.41;5095712;28;20189;-67
2023/07/28 08:44:38;;;;;;;5.40;3.88;;;;;;;20.93;45.54;94942.03;5095238;28;20195;-67
2023/07/28 08:47:06;;;;;;;4.32;3.90;;;;;;;21.12;45.94;94949.72;5094363;28;20260;-68
2023/07/28 08:49:36;;;;;;;7.35;4.70;;;;;;;21.39;43.46;94935.72;5095085;28;20208;-68
2023/07/28 08:52:05;;;;;;;4.60;4.20;;;;;;;21.51;43.51;94941.94;5095420;28;20200;-67
2023/07/28 08:54:34;;;;;;;4.63;4.07;;;;;;;21.57;44.57;94932.63;5094192;28;20211;-67
2023/07/28 08:57:07;;;;;;;6.03;4.50;;;;;;;21.74;43.59;94936.31;5095234;28;20279;-67
2023/07/28 08:59:35;;;;;;;4.85;4.35;;;;;;;21.80;42.70;94926.19;5099094;28;20253;-67
2023/07/28 09:02:06;;;;;;;4.90;4.03;;;;;;;21.89;42.63;94920.00;5097883;28;20600;-67
2023/07/28 09:04:34;;;;;;;4.60;3.88;;;;;;;22.01;43.90;94918.59;5099105;28;20184;-68
2023/07/28 09:07:05;;;;;;;5.85;3.80;;;;;;;22.15;42.32;94911.91;5097965;28;20623;-67
2023/07/28 09:09:34;;;;;;;4.30;3.70;;;;;;;22.37;43.00;94915.88;5098802;28;20201;-67
2023/07/28 09:12:02;;;;;;;4.63;4.00;;;;;;;22.49;41.89;94900.38;5097588;28;20251;-67
2023/07/28 09:14:36;;;;;;;4.78;3.92;;;;;;;22.67;40.85;94888.75;5098298;28;20229;-67
2023/07/28 09:17:12;;;;;;;4.63;3.58;;;;;;;22.80;41.84;94889.63;5098375;28;20191;-67
2023/07/28 09:19:55;;;;;;;4.47;4.07;;;;;;;23.06;40.97;94888.66;5097740;28;20207;-67
2023/07/28 09:22:23;;;;;;;5.88;4.57;;;;;;;23.20;40.30;94886.69;5055220;28;20202;-67
2023/07/28 09:24:52;;;;;;;4.32;3.88;;;;;;;23.23;42.15;94871.75;5057646;28;20194;-67
2023/07/28 09:27:29;;;;;;;4.47;4.07;;;;;;;23.39;39.20;94866.13;5058325;28;20186;-67
2023/07/28 09:29:57;;;;;;;5.03;4.03;;;;;;;23.42;40.16;94872.88;5057933;28;20210;-67
2023/07/28 09:32:33;;;;;;;6.68;4.22;;;;;;;23.55;38.61;94871.72;5058076;28;20248;-67
2023/07/28 09:35:11;;;;;;;4.97;4.07;;;;;;;23.59;39.56;94856.78;5057436;28;20235;-67
2023/07/28 09:37:43;;;;;;;4.10;3.75;;;;;;;23.61;39.08;94854.31;5058033;28;20249;-67
2023/07/28 09:40:12;;;;;;;4.30;3.90;;;;;;;23.76;40.02;94847.88;5057747;28;20611;-67
2023/07/28 09:42:40;;;;;;;4.00;3.70;;;;;;;24.03;37.97;94846.72;5057311;28;20205;-67
2023/07/28 09:45:10;;;;;;;4.45;3.83;;;;;;;24.19;38.87;94845.88;5056928;28;20234;-67
2023/07/28 09:47:41;;;;;;;4.70;3.45;;;;;;;24.32;38.97;94849.50;5056995;28;20197;-67
2023/07/28 09:50:13;;;;;;;4.70;3.55;;;;;;;24.50;38.37;94840.56;5057471;28;20275;-67
2023/07/28 09:52:44;;;;;;;3.92;3.60;;;;;;;24.49;37.71;94836.16;5057038;28;20297;-67
2023/07/28 09:55:51;;;;;;;4.22;3.72;;;;;;;24.48;37.55;94845.88;5057035;28;20204;-67
2023/07/28 09:58:56;;;;;;;4.03;3.63;;;;;;;24.46;37.06;94843.47;5000132;28;20210;-67
2023/07/28 10:02:00;;;;;;;4.68;3.60;;;;;;;24.43;36.92;94840.75;4999766;28;20269;-68
2023/07/28 10:05:05;;;;;;;4.03;3.70;;;;;;;24.64;37.40;94830.88;4999758;28;20218;-67
2023/07/28 10:08:10;;;;;;;5.80;3.60;;;;;;;24.84;36.84;94830.66;5015930;28;20215;-67
2023/07/28 10:11:15;;;;;;;5.70;3.65;;;;;;;24.95;35.97;94831.09;4998973;28;20234;-67
2023/07/28 10:14:20;;;;;;;3.75;3.40;;;;;;;25.04;37.70;94828.38;4999732;28;20207;-67
2023/07/28 10:17:26;;;;;;;4.32;3.78;;;;;;;25.17;36.02;94817.09;5042607;28;20290;-67
2023/07/28 10:20:35;;;;;;;3.92;3.53;;;;;;;25.34;35.54;94821.34;5057294;28;20198;-67
2023/07/28 10:23:39;;;;;;;3.65;3.35;;;;;;;25.32;35.79;94820.25;5096372;28;20223;-67
2023/07/28 10:26:45;;;;;;;6.03;3.63;;;;;;;25.35;36.03;94817.28;5097100;28;20207;-67
2023/07/28 10:29:50;;;;;;;5.43;3.75;;;;;;;25.59;36.86;94811.22;5097305;28;20208;-67
2023/07/28 10:32:59;;;;;;;3.53;3.22;;;;;;;25.80;35.83;94809.72;5097059;28;20196;-67
2023/07/28 10:36:04;;;;;;;7.57;3.55;;;;;;;25.88;36.70;94806.16;5096261;28;20196;-67
2023/07/28 10:39:09;;;;;;;4.07;3.67;;;;;;;25.87;34.33;94798.94;5096256;28;20204;-67
2023/07/28 10:42:15;;;;;;;3.33;3.00;;;;;;;25.80;33.83;94798.41;5096296;28;20700;-67
2023/07/28 10:45:20;;;;;;;3.50;3.20;;;;;;;25.90;35.08;94791.59;5096199;28;20196;-67
2023/07/28 10:48:30;;;;;;;3.47;2.80;;;;;;;26.03;34.58;94791.50;5096939;28;20224;-68
2023/07/28 10:51:38;;;;;;;4.57;2.88;;;;;;;26.14;34.05;94789.06;5096597;28;20227;-68
2023/07/28 10:54:43;;;;;;;3.60;3.30;;;;;;;26.34;35.38;94792.34;5096024;28;20227;-68
2023/07/28 10:57:49;;;;;;;3.83;3.53;;;;;;;26.42;33.89;94790.81;5095886;28;20192;-68
2023/07/28 11:00:23;;;;;;;4.75;3.30;;;;;;;26.36;32.73;94781.38;5095887;28;20223;-68
2023/07/28 11:02:52;;;;;;;3.00;2.70;;;;;;;26.30;32.44;94773.94;5096805;28;20196;-68
2023/07/28 11:05:21;;;;;;;3.25;2.90;;;;;;;26.39;32.82;94765.50;5096775;28;20207;-68
2023/07/28 11:07:50;;;;;;;3.42;3.15;;;;;;;26.48;32.26;94768.41;5096761;28;20184;-68
2023/07/28 11:10:20;;;;;;;3.10;2.80;;;;;;;26.60;33.94;94770.34;5096625;28;20212;-68
2023/07/28 11:12:51;;;;;;;2.92;2.72;;;;;;;26.71;32.55;94761.44;5095557;28;20215;-67
2023/07/28 11:15:23;;;;;;;2.88;2.67;;;;;;;26.75;32.14;94762.06;5095612;28;20210;-67
2023/07/28 11:17:52;;;;;;;3.00;2.70;;;;;;;26.79;31.74;94753.44;5095543;28;20185;-67
2023/07/28 11:20:24;;;;;;;3.08;2.88;;;;;;;26.84;32.22;94758.50;5096228;28;20252;-67
2023/07/28 11:22:55;;;;;;;3.20;3.00;;;;;;;26.96;32.17;94746.25;5095019;28;20200;-67
2023/07/28 11:25:24;;;;;;;3.08;2.88;;;;;;;27.01;32.56;94745.63;5096062;28;20180;-67
2023/07/28 11:27:52;;;;;;;3.45;3.15;;;;;;;27.13;31.08;94749.63;5096187;28;20211;-67
2023/07/28 11:30:22;;;;;;;3.70;2.72;;;;;;;27.19;31.41;94738.47;5095449;28;20223;-67
2023/07/28 11:32:50;;;;;;;2.90;2.60;;;;;;;27.23;30.96;94722.13;5095864;28;20200;-67
2023/07/28 11:35:20;;;;;;;3.50;3.15;;;;;;;27.31;32.05;94732.69;5096188;28;20199;-67
2023/07/28 11:37:51;;;;;;;3.50;3.20;;;;;;;27.44;29.76;94731.72;5096127;28;20228;-67
2023/07/28 11:40:25;;;;;;;3.50;3.20;;;;;;;27.43;29.82;94735.81;5095174;28;20224;-67
2023/07/28 11:42:55;;;;;;;3.13;2.92;;;;;;;27.44;29.69;94726.06;5095379;28;20195;-67
2023/07/28 11:45:24;;;;;;;3.15;2.95;;;;;;;27.45;28.61;94721.97;5095150;28;20220;-67
2023/07/28 11:47:57;;;;;;;3.40;3.20;;;;;;;27.47;29.81;94731.56;5096212;28;20176;-67
2023/07/28 11:50:26;;;;;;;4.55;3.70;;;;;;;27.51;29.85;94737.09;5095829;28;20217;-67
2023/07/28 11:52:54;;;;;;;3.30;3.03;;;;;;;27.54;30.09;94734.09;5095100;28;20197;-67